createdAt,value
2023-03-12T00:06:20.980Z,5.43
2023-03-12T00:08:49.374Z,5.28
2023-03-12T00:11:18.582Z,5.72
2023-03-12T00:13:46.375Z,5.40
2023-03-12T00:16:15.878Z,6.10
2023-03-12T00:18:43.848Z,6.27
2023-03-12T00:21:13.554Z,5.53
2023-03-12T00:23:42.454Z,5.47
2023-03-12T00:26:11.594Z,5.30
2023-03-12T00:28:39.312Z,6.03
2023-03-12T00:31:20.588Z,5.60
2023-03-12T00:33:53.013Z,5.97
2023-03-12T00:36:24.873Z,5.82
2023-03-12T00:38:54.229Z,5.60
2023-03-12T00:41:22.821Z,5.78
2023-03-12T00:43:53.393Z,6.03
2023-03-12T00:46:24.628Z,5.90
2023-03-12T00:48:55.707Z,5.75
2023-03-12T00:51:24.826Z,5.30
2023-03-12T00:53:53.494Z,5.50
2023-03-12T00:56:22.406Z,5.88
2023-03-12T00:58:50.417Z,5.28
2023-03-12T01:01:21.880Z,5.38
2023-03-12T01:03:52.701Z,5.40
2023-03-12T01:06:22.121Z,5.60
2023-03-12T01:08:49.907Z,5.32
2023-03-12T01:11:21.366Z,5.05
2023-03-12T01:13:49.666Z,4.90
2023-03-12T01:16:18.753Z,5.45
2023-03-12T01:18:46.930Z,5.28
2023-03-12T01:21:14.933Z,5.20
2023-03-12T01:23:42.870Z,5.28
2023-03-12T01:26:10.729Z,4.47
2023-03-12T01:28:39.466Z,4.78
2023-03-12T01:31:08.562Z,4.75
2023-03-12T01:33:36.420Z,5.00
2023-03-12T01:36:04.518Z,4.75
2023-03-12T01:38:32.563Z,5.03
2023-03-12T01:41:00.201Z,5.38
2023-03-12T01:43:32.359Z,4.55
2023-03-12T01:46:00.884Z,4.93
2023-03-12T01:48:30.654Z,4.85
2023-03-12T01:50:58.389Z,4.78
2023-03-12T01:53:26.104Z,4.63
2023-03-12T01:55:53.699Z,4.40
2023-03-12T01:58:22.442Z,4.65
2023-03-12T02:00:52.562Z,4.53
2023-03-12T02:03:21.157Z,4.63
2023-03-12T02:05:55.447Z,4.40
2023-03-12T02:08:24.175Z,4.55
2023-03-12T02:10:52.446Z,4.43
2023-03-12T02:13:20.465Z,5.25
2023-03-12T02:15:49.848Z,4.65
2023-03-12T02:18:23.488Z,4.80
2023-03-12T02:20:57.666Z,4.30
2023-03-12T02:23:33.212Z,4.47
2023-03-12T02:26:02.803Z,4.70
2023-03-12T02:28:31.005Z,5.13
2023-03-12T02:31:01.186Z,4.47
2023-03-12T02:33:29.144Z,4.50
2023-03-12T02:35:57.105Z,4.75
2023-03-12T02:38:29.527Z,4.40
2023-03-12T02:40:59.140Z,4.45
2023-03-12T02:43:26.969Z,4.70
2023-03-12T02:45:56.690Z,4.55
2023-03-12T02:48:24.532Z,4.57
2023-03-12T02:50:53.872Z,4.05
2023-03-12T02:53:22.368Z,4.70
2023-03-12T02:55:51.555Z,4.82
2023-03-12T02:58:19.229Z,4.50
2023-03-12T03:00:46.885Z,4.35
2023-03-12T03:03:14.491Z,4.22
2023-03-12T03:05:42.794Z,4.35
2023-03-12T03:08:10.687Z,4.95
2023-03-12T03:10:38.436Z,4.93
2023-03-12T03:13:06.317Z,3.70
2023-03-12T03:15:34.084Z,3.95
2023-03-12T03:18:04.048Z,4.20
2023-03-12T03:20:33.093Z,4.00
2023-03-12T03:23:00.720Z,3.50
2023-03-12T03:25:28.362Z,3.72
2023-03-12T03:27:56.049Z,3.72
2023-03-12T03:30:24.973Z,4.30
2023-03-12T03:32:54.326Z,4.20
2023-03-12T03:35:24.271Z,3.55
2023-03-12T03:37:53.293Z,3.35
2023-03-12T03:40:21.382Z,3.10
2023-03-12T03:42:49.102Z,3.10
2023-03-12T03:45:18.146Z,3.15
2023-03-12T03:47:45.917Z,6.28
2023-03-12T03:50:13.893Z,3.15
2023-03-12T03:52:42.647Z,3.55
2023-03-12T03:55:10.646Z,4.22
2023-03-12T03:57:38.935Z,3.45
2023-03-12T04:00:10.159Z,3.50
2023-03-12T04:02:46.047Z,3.20
2023-03-12T04:05:19.718Z,3.70
2023-03-12T04:07:49.338Z,3.67
2023-03-12T04:10:24.769Z,3.42
2023-03-12T04:12:53.878Z,3.45
2023-03-12T04:15:22.485Z,3.22
2023-03-12T04:17:51.248Z,4.25
2023-03-12T04:20:19.441Z,3.83
2023-03-12T04:22:47.486Z,3.42
2023-03-12T04:25:15.762Z,3.67
2023-03-12T04:27:43.404Z,4.10
2023-03-12T04:30:11.788Z,3.65
2023-03-12T04:32:40.000Z,3.97
2023-03-12T04:35:07.904Z,3.72
2023-03-12T04:37:35.648Z,3.80
2023-03-12T04:40:07.678Z,4.00
2023-03-12T04:42:36.038Z,3.90
2023-03-12T04:45:07.808Z,4.30
2023-03-12T04:47:39.891Z,3.90
2023-03-12T04:50:08.660Z,4.45
2023-03-12T04:52:36.579Z,5.10
2023-03-12T04:55:06.621Z,3.97
2023-03-12T04:57:34.205Z,4.05
2023-03-12T05:00:01.941Z,4.10
2023-03-12T05:02:31.193Z,3.90
2023-03-12T05:04:59.604Z,4.07
2023-03-12T05:07:27.458Z,3.90
2023-03-12T05:09:58.183Z,3.85
2023-03-12T05:12:25.861Z,4.10
2023-03-12T05:14:56.821Z,4.22
2023-03-12T05:17:25.305Z,4.60
2023-03-12T05:19:53.265Z,4.10
2023-03-12T05:22:21.525Z,3.58
2023-03-12T05:24:49.328Z,4.63
2023-03-12T05:27:19.652Z,4.53
2023-03-12T05:29:47.516Z,3.70
2023-03-12T05:32:15.806Z,4.05
2023-03-12T05:34:44.813Z,3.65
2023-03-12T05:37:12.946Z,3.50
2023-03-12T05:39:46.888Z,4.20
2023-03-12T05:42:16.647Z,3.80
2023-03-12T05:44:45.226Z,2.85
2023-03-12T05:47:16.665Z,3.97
2023-03-12T05:49:44.386Z,3.70
2023-03-12T05:52:12.848Z,3.42
2023-03-12T05:54:42.257Z,4.55
2023-03-12T05:57:10.918Z,4.57
2023-03-12T05:59:39.076Z,4.10
2023-03-12T06:02:10.598Z,4.20
2023-03-12T06:04:39.448Z,3.60
2023-03-12T06:07:07.588Z,4.03
2023-03-12T06:09:36.708Z,3.60
2023-03-12T06:12:04.519Z,3.97
2023-03-12T06:14:32.653Z,3.47
2023-03-12T06:17:01.867Z,4.40
2023-03-12T06:19:29.774Z,4.05
2023-03-12T06:21:59.459Z,3.70
2023-03-12T06:24:28.515Z,3.30
2023-03-12T06:27:02.998Z,4.57
2023-03-12T06:29:30.806Z,3.75
2023-03-12T06:31:58.585Z,3.55
2023-03-12T06:34:26.222Z,4.65
2023-03-12T06:36:53.822Z,4.70
2023-03-12T06:39:22.308Z,3.80
2023-03-12T06:41:49.844Z,4.07
2023-03-12T06:44:18.063Z,3.95
2023-03-12T06:46:45.516Z,3.97
2023-03-12T06:49:13.212Z,4.50
2023-03-12T06:51:41.064Z,4.60
2023-03-12T06:54:08.653Z,4.30
2023-03-12T06:59:07.484Z,4.97
2023-03-12T07:01:35.383Z,5.45
2023-03-12T07:04:02.963Z,4.90
2023-03-12T07:06:31.168Z,4.97
2023-03-12T07:08:58.614Z,5.47
2023-03-12T07:11:26.324Z,5.82
2023-03-12T07:13:54.093Z,6.97
2023-03-12T07:16:22.507Z,5.82
2023-03-12T07:18:53.009Z,5.15
2023-03-12T07:21:24.136Z,6.00
2023-03-12T07:23:52.594Z,6.88
2023-03-12T07:26:22.623Z,6.88
2023-03-12T07:28:54.286Z,6.93
2023-03-12T07:31:22.452Z,6.50
2023-03-12T07:33:50.148Z,7.30
2023-03-12T07:36:18.872Z,7.35
2023-03-12T07:38:46.874Z,6.95
2023-03-12T07:41:15.114Z,7.07
2023-03-12T07:43:42.958Z,7.20
2023-03-12T07:46:10.450Z,8.25
2023-03-12T07:48:38.725Z,7.05
2023-03-12T07:51:06.604Z,7.32
2023-03-12T07:53:34.288Z,7.35
2023-03-12T07:56:02.898Z,8.43
2023-03-12T07:58:31.609Z,7.85
2023-03-12T08:00:59.363Z,8.10
2023-03-12T08:03:27.097Z,8.05
2023-03-12T08:06:00.449Z,7.25
2023-03-12T08:08:29.450Z,8.02
2023-03-12T08:10:57.286Z,8.80
2023-03-12T08:13:25.300Z,8.20
2023-03-12T08:15:55.214Z,8.85
2023-03-12T08:18:23.364Z,9.35
2023-03-12T08:20:55.180Z,8.70
2023-03-12T08:23:23.432Z,9.20
2023-03-12T08:25:52.293Z,10.13
2023-03-12T08:28:21.495Z,10.15
2023-03-12T08:30:50.090Z,10.32
2023-03-12T08:33:19.636Z,10.00
2023-03-12T08:35:47.576Z,10.27
2023-03-12T08:38:17.381Z,10.02
2023-03-12T08:40:45.498Z,10.75
2023-03-12T08:43:13.859Z,11.30
2023-03-12T08:45:44.658Z,10.70
2023-03-12T08:48:13.027Z,11.05
2023-03-12T08:50:40.914Z,11.70
2023-03-12T08:53:08.526Z,10.98
2023-03-12T08:55:36.744Z,10.52
2023-03-12T08:58:04.896Z,12.57
2023-03-12T09:00:34.732Z,11.52
2023-03-12T09:03:02.404Z,12.35
2023-03-12T09:05:30.800Z,12.35
2023-03-12T09:08:00.150Z,12.15
2023-03-12T09:10:30.771Z,12.75
2023-03-12T09:12:59.034Z,13.63
2023-03-12T09:15:27.096Z,14.02
2023-03-12T09:17:55.877Z,13.25
2023-03-12T09:20:26.180Z,14.13
2023-03-12T09:22:53.776Z,13.77
2023-03-12T09:25:23.706Z,13.63
2023-03-12T09:27:52.640Z,14.73
2023-03-12T09:30:22.590Z,14.30
2023-03-12T09:32:50.592Z,15.73
2023-03-12T09:35:19.035Z,17.48
2023-03-12T09:37:49.059Z,15.48
2023-03-12T09:40:18.193Z,16.45
2023-03-12T09:42:52.269Z,16.58
2023-03-12T09:45:23.674Z,17.80
2023-03-12T09:47:56.198Z,18.27
2023-03-12T09:50:34.722Z,18.27
2023-03-12T09:53:22.750Z,19.63
2023-03-12T09:55:52.760Z,20.13
2023-03-12T09:58:21.503Z,20.50
2023-03-12T10:00:49.454Z,21.60
2023-03-12T10:06:13.174Z,22.25
2023-03-12T10:08:51.102Z,22.88
2023-03-12T10:11:37.512Z,23.95
2023-03-12T10:14:16.111Z,24.33
2023-03-12T10:17:13.605Z,25.42
2023-03-12T10:22:14.446Z,25.20
2023-03-12T10:24:57.985Z,27.67
2023-03-12T10:27:28.647Z,27.23
2023-03-12T10:29:57.672Z,28.00
2023-03-12T10:32:37.737Z,29.40
2023-03-12T10:35:15.995Z,27.38
2023-03-12T10:37:50.064Z,29.05
2023-03-12T10:40:21.552Z,29.60
2023-03-12T10:42:49.524Z,29.17
2023-03-12T10:45:24.166Z,30.35
2023-03-12T10:48:03.959Z,28.90
2023-03-12T10:50:33.280Z,30.05
2023-03-12T10:53:20.098Z,27.95
2023-03-12T10:56:06.296Z,28.42
2023-03-12T10:58:35.705Z,27.73
2023-03-12T11:01:04.243Z,26.38
2023-03-12T11:03:33.938Z,25.95
2023-03-12T11:06:02.947Z,27.85
2023-03-12T11:08:30.709Z,26.17
2023-03-12T11:10:59.569Z,25.80
2023-03-12T11:13:34.363Z,25.48
2023-03-12T11:16:04.259Z,23.40
2023-03-12T11:18:33.625Z,22.55
2023-03-12T11:21:10.322Z,22.02
2023-03-12T11:23:39.413Z,21.48
2023-03-12T11:26:12.854Z,20.90
2023-03-12T11:28:52.586Z,20.27
2023-03-12T11:31:23.169Z,20.30
2023-03-12T11:33:53.010Z,20.10
2023-03-12T11:36:40.774Z,19.20
2023-03-12T11:39:16.022Z,20.55
2023-03-12T11:42:00.982Z,19.70
2023-03-12T11:44:32.643Z,18.30
2023-03-12T11:47:00.524Z,18.77
2023-03-12T11:49:47.857Z,19.50
2023-03-12T11:52:33.499Z,17.77
2023-03-12T11:55:18.423Z,17.17
2023-03-12T11:57:49.380Z,16.42
2023-03-12T12:00:18.514Z,14.15
2023-03-12T12:03:02.041Z,13.50
2023-03-12T12:05:48.696Z,13.68
2023-03-12T12:08:31.790Z,10.82
2023-03-12T12:11:03.595Z,10.45
2023-03-12T12:13:53.995Z,10.02
2023-03-12T12:16:24.614Z,10.13
2023-03-12T12:19:04.537Z,10.57
2023-03-12T12:21:44.910Z,11.10
2023-03-12T12:24:23.704Z,10.77
2023-03-12T12:26:55.281Z,11.55
2023-03-12T12:29:27.142Z,12.70
2023-03-12T12:31:59.195Z,12.40
2023-03-12T12:34:33.349Z,12.05
2023-03-12T12:37:19.508Z,12.60
2023-03-12T12:39:49.580Z,15.18
2023-03-12T12:42:43.285Z,15.25
2023-03-12T12:45:14.580Z,14.48
2023-03-12T12:47:47.993Z,15.73
2023-03-12T12:50:19.164Z,17.23
2023-03-12T12:52:52.670Z,14.98
2023-03-12T12:55:27.693Z,11.27
2023-03-12T12:58:01.628Z,10.45
2023-03-12T13:01:05.084Z,10.55
2023-03-12T13:03:33.906Z,9.27
2023-03-12T13:06:03.446Z,9.20
2023-03-12T13:08:46.445Z,8.27
2023-03-12T13:11:20.431Z,7.80
2023-03-12T13:14:12.052Z,7.40
2023-03-12T13:19:16.705Z,7.57
2023-03-12T13:22:03.183Z,7.68
2023-03-12T13:24:46.050Z,7.38
2023-03-12T13:27:30.955Z,7.35
2023-03-12T13:29:58.580Z,7.93
2023-03-12T13:32:36.920Z,7.40
2023-03-12T13:35:16.904Z,6.15
2023-03-12T13:37:59.276Z,6.88
2023-03-12T13:40:30.048Z,7.60
2023-03-12T13:43:06.851Z,6.78
2023-03-12T13:45:35.591Z,7.43
2023-03-12T13:48:06.410Z,6.50
2023-03-12T13:50:34.733Z,6.28
2023-03-12T13:53:07.118Z,5.65
2023-03-12T13:55:35.810Z,6.25
2023-03-12T13:58:09.593Z,6.95
2023-03-12T14:00:41.799Z,7.60
2023-03-12T14:03:15.844Z,6.22
2023-03-12T14:05:55.939Z,6.38
2023-03-12T14:08:30.039Z,5.15
2023-03-12T14:11:01.584Z,4.53
2023-03-12T14:13:37.215Z,5.93
2023-03-12T14:16:11.081Z,5.20
2023-03-12T14:18:39.829Z,5.00
2023-03-12T14:21:09.629Z,5.63
2023-03-12T14:23:41.897Z,4.75
2023-03-12T14:26:19.947Z,4.22
2023-03-12T14:28:51.350Z,5.28
2023-03-12T14:33:53.146Z,4.60
2023-03-12T14:36:23.057Z,5.05
2023-03-12T14:39:01.171Z,4.85
2023-03-12T14:41:30.275Z,4.18
2023-03-12T14:44:05.802Z,4.93
2023-03-12T14:46:33.537Z,4.50
2023-03-12T14:49:01.768Z,4.38
2023-03-12T14:51:30.516Z,4.45
2023-03-12T14:54:02.933Z,4.40
2023-03-12T14:56:33.460Z,5.72
2023-03-12T15:01:31.225Z,4.35
2023-03-12T15:04:08.872Z,4.70
2023-03-12T15:06:37.391Z,5.93
2023-03-12T15:09:06.736Z,4.47
2023-03-12T15:11:35.698Z,6.28
2023-03-12T15:14:16.068Z,5.70
2023-03-12T15:16:45.431Z,5.85
2023-03-12T15:19:14.729Z,5.43
2023-03-12T15:21:42.733Z,5.78
2023-03-12T15:24:13.610Z,6.25
2023-03-12T15:26:43.493Z,5.90
2023-03-12T15:29:31.423Z,6.70
2023-03-12T15:32:00.597Z,6.60
2023-03-12T15:34:33.261Z,6.13
2023-03-12T15:37:20.042Z,5.35
2023-03-12T15:39:51.419Z,6.07
2023-03-12T15:42:21.119Z,6.83
2023-03-12T15:44:58.180Z,6.38
2023-03-12T15:47:31.960Z,5.90
2023-03-12T15:50:05.307Z,6.53
2023-03-12T15:52:35.006Z,5.97
2023-03-12T15:55:07.362Z,6.95
2023-03-12T15:57:35.785Z,6.22
2023-03-12T16:00:29.823Z,5.72
2023-03-12T16:03:06.210Z,5.75
2023-03-12T16:05:36.154Z,6.80
2023-03-12T16:08:16.096Z,6.03
2023-03-12T16:10:44.371Z,6.93
2023-03-12T16:13:14.760Z,6.85
2023-03-12T16:15:43.088Z,6.32
2023-03-12T16:18:18.128Z,7.18
2023-03-12T16:20:46.231Z,7.03
2023-03-12T16:23:14.384Z,7.25
2023-03-12T16:25:46.903Z,6.50
2023-03-12T16:28:15.642Z,6.55
2023-03-12T16:30:43.455Z,6.65
2023-03-12T16:33:15.167Z,6.95
2023-03-12T16:35:42.976Z,6.95
2023-03-12T16:38:11.179Z,7.15
2023-03-12T16:40:41.303Z,6.40
2023-03-12T16:43:14.750Z,7.13
2023-03-12T16:45:44.448Z,6.38
2023-03-12T16:48:15.433Z,7.90
2023-03-12T16:50:49.308Z,7.40
2023-03-12T16:53:17.178Z,6.53
2023-03-12T16:59:04.130Z,6.50
2023-03-12T17:01:31.849Z,8.57
2023-03-12T17:03:59.950Z,6.38
2023-03-12T17:06:28.195Z,7.60
2023-03-12T17:08:55.787Z,7.00
2023-03-12T17:11:25.478Z,5.88
2023-03-12T17:14:03.461Z,5.53
2023-03-12T17:16:32.751Z,6.13
2023-03-12T17:19:00.516Z,5.70
2023-03-12T17:21:28.562Z,6.13
2023-03-12T17:23:56.752Z,6.63
2023-03-12T17:26:24.390Z,6.47
2023-03-12T17:28:52.441Z,7.07
2023-03-12T17:31:21.358Z,7.00
2023-03-12T17:33:49.325Z,5.30
2023-03-12T17:36:17.056Z,6.53
2023-03-12T17:38:44.887Z,6.63
2023-03-12T17:41:25.542Z,5.72
2023-03-12T17:43:59.005Z,5.88
2023-03-12T17:46:26.995Z,6.55
2023-03-12T17:48:55.023Z,6.10
2023-03-12T17:51:23.708Z,6.40
2023-03-12T17:53:51.311Z,6.07
2023-03-12T17:56:19.349Z,5.75
2023-03-12T17:58:46.991Z,6.03
2023-03-12T18:01:15.811Z,5.47
2023-03-12T18:03:44.183Z,5.75
2023-03-12T18:06:12.374Z,5.72
2023-03-12T18:08:40.194Z,6.45
2023-03-12T18:11:07.773Z,6.00
2023-03-12T18:13:35.474Z,6.00
2023-03-12T18:16:03.104Z,6.63
2023-03-12T18:18:30.716Z,5.82
2023-03-12T18:20:58.231Z,6.65
2023-03-12T18:23:25.978Z,6.15
2023-03-12T18:25:54.072Z,5.70
2023-03-12T18:28:23.412Z,6.45
2023-03-12T18:30:52.215Z,6.93
2023-03-12T18:33:20.897Z,6.65
2023-03-12T18:35:49.065Z,6.82
2023-03-12T18:38:16.659Z,6.60
2023-03-12T18:40:45.131Z,6.05
2023-03-12T18:43:13.726Z,6.15
2023-03-12T18:45:45.161Z,5.35
2023-03-12T18:48:12.880Z,7.00
2023-03-12T18:50:40.802Z,7.50
2023-03-12T18:53:08.662Z,6.78
2023-03-12T18:55:37.146Z,5.20
2023-03-12T18:58:05.062Z,6.63
2023-03-12T19:00:34.080Z,5.95
2023-03-12T19:03:01.802Z,6.53
2023-03-12T19:05:29.760Z,6.90
2023-03-12T19:07:57.542Z,8.27
2023-03-12T19:10:25.161Z,8.05
2023-03-12T19:12:59.158Z,6.30
2023-03-12T19:15:27.372Z,6.65
2023-03-12T19:17:56.620Z,8.13
2023-03-12T19:20:25.806Z,6.80
2023-03-12T19:22:54.059Z,6.30
2023-03-12T19:25:22.616Z,7.00
2023-03-12T19:27:53.340Z,6.53
2023-03-12T19:32:52.665Z,7.22
2023-03-12T19:35:21.422Z,7.10
2023-03-12T19:37:49.005Z,5.80
2023-03-12T19:40:16.822Z,6.30
2023-03-12T19:42:45.217Z,6.50
2023-03-12T19:45:14.065Z,6.03
2023-03-12T19:47:42.155Z,5.63
2023-03-12T19:50:11.073Z,6.45
2023-03-12T19:52:40.128Z,5.70
2023-03-12T19:55:09.020Z,5.43
2023-03-12T19:57:41.232Z,5.05
2023-03-12T20:00:12.988Z,4.93
2023-03-12T20:02:41.015Z,5.65
2023-03-12T20:05:09.297Z,5.50
2023-03-12T20:07:37.284Z,5.63
2023-03-12T20:10:06.564Z,5.55
2023-03-12T20:12:34.673Z,6.43
2023-03-12T20:15:02.406Z,6.53
2023-03-12T20:17:29.974Z,6.38
2023-03-12T20:19:58.221Z,6.57
2023-03-12T20:22:26.399Z,7.10
2023-03-12T20:24:55.317Z,5.78
2023-03-12T20:27:23.893Z,7.30
2023-03-12T20:29:53.021Z,5.32
2023-03-12T20:32:23.353Z,6.18
2023-03-12T20:34:52.174Z,6.55
2023-03-12T20:37:19.785Z,6.60
2023-03-12T20:39:47.539Z,6.68
2023-03-12T20:42:15.238Z,6.45
2023-03-12T20:44:42.981Z,6.47
2023-03-12T20:47:10.499Z,6.47
2023-03-12T20:49:38.852Z,5.57
2023-03-12T20:52:07.651Z,5.97
2023-03-12T20:54:40.525Z,6.60
2023-03-12T20:57:12.642Z,6.47
2023-03-12T20:59:40.701Z,6.47
2023-03-12T21:02:09.064Z,5.93
2023-03-12T21:04:37.161Z,6.03
2023-03-12T21:07:04.630Z,6.28
2023-03-12T21:09:32.172Z,5.70
2023-03-12T21:11:59.773Z,6.43
2023-03-12T21:14:30.258Z,5.55
2023-03-12T21:16:57.988Z,5.80
2023-03-12T21:19:27.240Z,6.50
2023-03-12T21:21:54.868Z,6.25
2023-03-12T21:24:24.097Z,5.25
2023-03-12T21:26:52.764Z,5.40
2023-03-12T21:29:22.693Z,5.28
2023-03-12T21:31:53.897Z,6.30
2023-03-12T21:34:23.188Z,6.68
2023-03-12T21:36:51.291Z,7.18
2023-03-12T21:39:19.116Z,6.35
2023-03-12T21:41:46.668Z,6.80
2023-03-12T21:44:16.392Z,5.45
2023-03-12T21:46:44.563Z,7.10
2023-03-12T21:49:14.202Z,6.35
2023-03-12T21:51:42.055Z,6.82
2023-03-12T21:54:09.862Z,7.15
2023-03-12T21:56:37.313Z,6.55
2023-03-12T21:59:05.013Z,7.05
2023-03-12T22:01:33.320Z,6.22
2023-03-12T22:04:03.374Z,6.60
2023-03-12T22:06:31.507Z,6.13
2023-03-12T22:08:59.150Z,5.88
2023-03-12T22:11:26.764Z,6.25
2023-03-12T22:13:55.322Z,5.82
2023-03-12T22:16:23.594Z,5.50
2023-03-12T22:18:52.543Z,6.70
2023-03-12T22:21:22.639Z,6.80
2023-03-12T22:23:54.923Z,5.82
2023-03-12T22:26:25.398Z,5.75
2023-03-12T22:31:22.776Z,5.97
2023-03-12T22:33:52.757Z,5.65
2023-03-12T22:36:21.468Z,5.88
2023-03-12T22:38:49.465Z,4.85
2023-03-12T22:41:19.877Z,5.40
2023-03-12T22:43:48.375Z,5.00
2023-03-12T22:46:17.353Z,4.82
2023-03-12T22:48:46.116Z,5.10
2023-03-12T22:51:13.762Z,4.57
2023-03-12T22:53:41.338Z,5.82
2023-03-12T22:56:11.330Z,5.22
2023-03-12T22:58:39.167Z,5.22
2023-03-12T23:01:10.941Z,6.38
2023-03-12T23:03:39.672Z,5.38
2023-03-12T23:06:11.210Z,6.15
2023-03-12T23:08:39.996Z,5.10
2023-03-12T23:11:09.638Z,5.63
2023-03-12T23:13:38.798Z,5.88
2023-03-12T23:16:07.970Z,5.50
2023-03-12T23:18:35.941Z,4.88
2023-03-12T23:21:05.184Z,4.95
2023-03-12T23:23:33.210Z,5.70
2023-03-12T23:26:01.739Z,6.50
2023-03-12T23:28:29.945Z,5.18
2023-03-12T23:31:05.219Z,6.05
2023-03-12T23:33:33.378Z,6.40
2023-03-12T23:36:09.077Z,5.47
2023-03-12T23:38:37.740Z,5.97
2023-03-12T23:41:05.422Z,6.15
2023-03-12T23:43:33.173Z,5.05
2023-03-12T23:46:01.893Z,5.78
2023-03-12T23:48:30.325Z,5.07
2023-03-12T23:51:05.462Z,5.50
2023-03-12T23:53:33.452Z,4.65
2023-03-12T23:56:02.995Z,4.28
2023-03-12T23:58:32.272Z,5.32
